Latest Weather Observations for Hobart Airport

IDT60901

Issued at 10:21 pm EST Friday 27 May 2016 (issued every 10 minutes, with the page automatically refreshed every 10 minutes)

About weather observations | Map of Hobart area stations | Latest observations for Hobart area | Other Formats
Station Details ID: 094008 Name: HOBART AIRPORT Lat: -42.83 Lon: 147.50 Height: 4.0 m
Data from the previous 72 hours. | See also: Recent months at Hobart Airport
Date/Time
EST
Tmp

°C
App
Tmp
°C
Dew
Point
°C
Rel
Hum
%
Delta-T

°C
Wind Press
QNH
hPa
Press
MSL
hPa
Rain
since
9 am
mm
Dir
 
Spd
km/h
Gust
km/h
Spd
kts
Gust
kts
27/10:00pm 9.0 6.3 5.5 79 1.6 NW 9 15 5 8 1007.9 1007.9 0.0
27/09:30pm 10.1 6.5 2.9 61 3.1 SSW 11 15 6 8 1007.7 1007.7 0.0
27/09:00pm 10.3 6.0 3.5 62 3.0 SW 15 19 8 10 1007.7 1007.7 0.0
27/08:30pm 10.3 7.0 4.3 66 2.7 SW 11 15 6 8 1007.6 1007.6 0.0
27/08:00pm 10.0 7.1 4.9 70 2.3 WSW 9 13 5 7 1007.5 1007.5 0.0
27/07:30pm 10.3 7.0 4.8 69 2.5 SSW 11 13 6 7 1007.3 1007.3 0.0
27/07:00pm 10.4 6.7 4.4 66 2.7 SSW 13 17 7 9 1007.0 1007.0 0.0
27/06:30pm 10.6 6.5 4.1 64 2.9 SSW 15 22 8 12 1006.8 1006.8 0.0
27/06:00pm 10.6 6.9 4.4 65 2.8 SSW 13 20 7 11 1006.6 1006.6 0.0
27/05:30pm 10.6 6.9 4.6 66 2.7 SSW 13 17 7 9 1006.3 1006.3 0.0
27/05:00pm 11.1 6.7 4.5 64 3.0 SSW 17 22 9 12 1006.1 1006.1 0.0
27/04:30pm 11.2 6.3 5.1 66 2.8 SSW 20 28 11 15 1005.9 1005.9 0.0
27/04:00pm 11.3 7.0 5.2 66 2.8 S 17 24 9 13 1005.6 1005.6 0.0
27/03:30pm 11.6 7.3 5.1 64 3.0 S 17 28 9 15 1005.3 1005.3 0.0
27/03:00pm 11.4 6.8 5.6 67 2.7 SSW 19 26 10 14 1005.0 1005.0 0.0
27/02:30pm 11.2 6.6 5.8 69 2.5 SSW 19 26 10 14 1004.7 1004.7 0.0
27/02:00pm 11.1 6.5 5.5 68 2.6 SSW 19 26 10 14 1004.7 1004.7 0.0
27/01:30pm 11.4 6.9 6.3 71 2.4 SSW 19 26 10 14 1004.8 1004.8 0.0
27/01:00pm 11.4 6.7 6.1 70 2.5 SSW 20 28 11 15 1004.7 1004.7 0.0
27/12:30pm 11.2 6.7 6.1 71 2.4 SSW 19 30 10 16 1004.7 1004.7 0.0
27/12:00pm 11.2 6.7 6.1 71 2.4 SW 19 28 10 15 1004.8 1004.8 0.0
27/11:30am 11.1 5.3 6.4 73 2.2 SW 26 35 14 19 1004.8 1004.8 0.0
27/11:00am 11.1 6.1 6.4 73 2.2 SW 22 32 12 17 1005.0 1005.0 0.0
27/10:30am 10.9 6.2 6.2 73 2.2 SSW 20 30 11 16 1004.9 1004.9 0.0
27/10:00am 10.8 6.3 6.3 74 2.1 SW 19 24 10 13 1004.9 1004.9 0.0
27/09:30am 10.5 6.0 6.0 74 2.1 SSW 19 28 10 15 1004.6 1004.6 0.0
27/09:00am 10.3 6.1 5.5 72 2.2 SSW 17 24 9 13 1004.4 1004.4 0.2
27/08:30am 10.1 5.7 5.0 70 2.3 SW 17 24 9 13 1004.3 1004.3 0.2
27/08:00am 9.9 5.6 5.3 73 2.1 SW 17 22 9 12 1004.1 1004.1 0.2
27/07:30am 9.9 5.9 4.8 70 2.3 SSW 15 20 8 11 1004.0 1004.0 0.2
27/07:00am 9.9 5.5 4.8 70 2.3 SW 17 24 9 13 1003.7 1003.7 0.2
27/06:30am 10.1 5.3 4.5 68 2.5 SW 19 26 10 14 1003.5 1003.5 0.2
27/06:00am 10.2 5.4 4.4 67 2.6 SW 19 28 10 15 1003.4 1003.4 0.2
27/05:30am 10.2 5.3 4.1 66 2.7 SW 19 28 10 15 1003.4 1003.4 0.2
27/05:00am 10.3 5.2 4.0 65 2.8 SW 20 28 11 15 1003.2 1003.2 0.2
27/04:30am 10.2 5.1 4.1 66 2.7 SW 20 28 11 15 1003.1 1003.1 0.2
27/04:00am 10.3 5.4 4.0 65 2.8 SW 19 22 10 12 1002.9 1002.9 0.2
27/03:30am 10.4 5.9 4.1 65 2.8 SW 17 22 9 12 1002.8 1002.8 0.2
27/03:00am 10.5 5.6 4.3 65 2.8 SW 19 24 10 13 1002.9 1002.9 0.2
27/02:30am 10.5 6.4 4.3 65 2.8 SW 15 22 8 12 1003.0 1003.0 0.2
27/02:00am 10.3 5.5 4.5 67 2.6 SW 19 26 10 14 1002.9 1002.9 0.2
27/01:30am 10.3 5.9 4.5 67 2.6 SW 17 22 9 12 1002.8 1002.8 0.2
27/01:00am 10.4 6.3 4.1 65 2.8 SW 15 19 8 10 1002.8 1002.8 0.2
27/12:30am 10.5 6.0 4.3 65 2.8 SW 17 24 9 13 1002.8 1002.8 0.2
27/12:00am 10.5 6.4 4.5 66 2.7 SW 15 24 8 13 1002.9 1002.9 0.2
 
Date/Time
EST
Tmp

°C
App
Tmp
°C
Dew
Point
°C
Rel
Hum
%
Delta-T

°C
Wind Press
QNH
hPa
Press
MSL
hPa
Rain
since
9 am
mm
Dir
 
Spd
km/h
Gust
km/h
Spd
kts
Gust
kts
26/11:30pm 10.5 6.1 4.5 66 2.7 SW 17 26 9 14 1003.0 1003.0 0.2
26/11:00pm 10.6 6.5 4.1 64 2.9 SW 15 20 8 11 1003.0 1003.0 0.2
26/10:30pm 10.5 6.1 4.5 66 2.7 SW 17 20 9 11 1003.1 1003.1 0.2
26/10:00pm 10.7 6.3 4.5 65 2.8 SSW 17 24 9 13 1003.1 1003.1 0.2
26/09:30pm 10.9 6.5 4.5 64 2.9 SW 17 22 9 12 1003.0 1003.0 0.2
26/09:00pm 10.9 6.5 4.7 65 2.8 SW 17 22 9 12 1003.0 1003.0 0.2
26/08:30pm 10.9 7.0 5.3 68 2.6 SSW 15 19 8 10 1002.9 1002.9 0.2
26/08:00pm 10.9 6.6 5.3 68 2.6 SSW 17 20 9 11 1002.7 1002.7 0.2
26/07:30pm 11.0 7.4 4.9 66 2.8 SW 13 17 7 9 1002.9 1002.9 0.2
26/07:00pm 10.9 7.9 6.0 72 2.3 SW 11 15 6 8 1002.7 1002.7 0.2
26/06:30pm 11.0 7.6 5.9 71 2.4 SSW 13 17 7 9 1002.5 1002.5 0.2
26/06:00pm 11.1 6.9 5.5 68 2.6 SSW 17 28 9 15 1002.3 1002.3 0.2
26/05:30pm 11.2 7.2 5.1 66 2.8 SSW 15 22 8 12 1002.2 1002.2 0.2
26/05:00pm 11.2 7.3 5.4 67 2.7 SSW 15 20 8 11 1001.9 1001.9 0.2
26/04:30pm 11.4 7.9 5.6 67 2.7 SSW 13 17 7 9 1001.6 1001.6 0.2
26/04:00pm 11.7 8.1 5.2 64 3.0 SSW 13 17 7 9 1001.6 1001.6 0.2
26/03:30pm 11.9 7.9 5.0 62 3.2 SSW 15 20 8 11 1001.4 1001.4 0.2
26/03:00pm 12.0 8.2 5.6 65 3.0 S 15 22 8 12 1001.4 1001.4 0.2
26/02:30pm 12.2 8.6 4.8 60 3.4 S 13 19 7 10 1001.4 1001.4 0.2
26/02:00pm 12.3 8.3 4.7 60 3.5 S 15 22 8 12 1001.4 1001.4 0.2
26/01:30pm 12.5 8.4 4.4 58 3.7 SSW 15 22 8 12 1001.7 1001.7 0.2
26/01:00pm 12.8 9.0 3.7 54 4.1 SSW 13 17 7 9 1001.7 1001.7 0.2
26/12:30pm 13.0 9.5 5.6 61 3.5 S 13 19 7 10 1001.8 1001.8 0.0
26/12:00pm 11.7 9.6 5.7 66 2.8 SE 6 9 3 5 1001.8 1001.8 0.0
26/11:30am 11.2 9.2 6.3 72 2.3 NNW 6 9 3 5 1002.2 1002.2 0.0
26/11:00am 11.2 8.6 6.3 72 2.3 WNW 9 11 5 6 1002.6 1002.6 0.0
26/10:30am 11.5 10.0 6.7 72 2.3 ENE 4 7 2 4 1002.9 1002.9 0.0
26/10:00am 11.2 10.6 7.3 77 1.9 CALM 0 0 0 0 1003.0 1003.0 0.0
26/09:30am 10.1 8.2 6.5 78 1.7 NNE 6 7 3 4 1003.2 1003.2 0.0
26/09:00am 9.6 7.1 6.6 81 1.4 N 9 11 5 6 1003.1 1003.1 0.0
26/08:30am 8.7 6.5 6.3 85 1.1 WNW 7 11 4 6 1002.8 1002.8 0.0
26/08:00am 9.1 6.9 6.3 83 1.3 NNW 7 9 4 5 1002.7 1002.7 0.0
26/07:30am 9.0 6.5 6.4 84 1.2 WNW 9 11 5 6 1002.6 1002.6 0.0
26/07:00am 8.7 6.6 6.8 88 0.9 W 7 11 4 6 1002.6 1002.6 0.0
26/06:30am 8.4 6.4 6.9 90 0.7 N 7 9 4 5 1002.5 1002.5 0.0
26/06:00am 8.8 7.2 6.4 85 1.1 W 4 9 2 5 1002.2 1002.2 0.0
26/05:30am 8.9 7.2 6.1 82 1.3 W 4 9 2 5 1002.1 1002.1 0.0
26/05:00am 8.7 7.9 6.3 85 1.1 CALM 0 2 0 1 1002.3 1002.3 0.0
26/04:30am 8.6 6.4 6.4 86 1.0 NW 7 7 4 4 1002.3 1002.3 0.0
26/04:00am 8.6 6.4 6.2 85 1.1 N 7 9 4 5 1002.0 1002.0 0.0
26/03:30am 8.7 6.1 6.1 84 1.2 W 9 11 5 6 1002.1 1002.1 0.0
26/03:00am 8.1 5.1 6.1 87 0.9 NW 11 13 6 7 1001.9 1001.9 0.0
26/02:30am 7.8 4.8 5.8 87 0.9 NW 11 13 6 7 1001.9 1001.9 0.0
26/02:00am 7.8 4.7 5.6 86 1.0 NW 11 15 6 8 1001.9 1001.9 0.0
26/01:30am 8.2 4.7 5.6 84 1.2 NNW 13 15 7 8 1002.0 1002.0 0.0
26/01:00am 8.4 5.0 6.0 85 1.1 NW 13 15 7 8 1002.1 1002.1 0.0
26/12:30am 9.6 5.9 6.4 80 1.5 NW 15 17 8 9 1002.5 1002.5 0.0
26/12:00am 8.4 4.7 6.5 88 0.9 NW 15 17 8 9 1002.6 1002.6 0.0
 
Date/Time
EST
Tmp

°C
App
Tmp
°C
Dew
Point
°C
Rel
Hum
%
Delta-T

°C
Wind Press
QNH
hPa
Press
MSL
hPa
Rain
since
9 am
mm
Dir
 
Spd
km/h
Gust
km/h
Spd
kts
Gust
kts
25/11:30pm 9.2 5.9 6.6 84 1.2 NNW 13 15 7 8 1002.8 1002.8 0.0
25/11:00pm 9.0 5.7 6.6 85 1.1 NNW 13 17 7 9 1003.2 1003.2 0.0
25/10:30pm 9.7 6.4 6.5 80 1.5 NW 13 15 7 8 1003.5 1003.5 0.0
25/10:00pm 9.9 9.1 6.7 80 1.5 CALM 0 0 0 0 1003.8 1003.8 0.0
25/09:30pm 9.0 6.9 5.7 80 1.5 NNW 6 7 3 4 1003.8 1003.8 0.0
25/09:00pm 8.1 7.0 5.2 82 1.3 CALM 0 0 0 0 1004.1 1004.1 0.0
25/08:30pm 7.8 6.6 4.6 80 1.4 CALM 0 0 0 0 1004.3 1004.3 0.0
25/08:00pm 7.7 5.1 4.3 79 1.5 ESE 7 9 4 5 1004.3 1004.3 0.0
25/07:30pm 9.2 7.0 5.2 76 1.8 N 6 11 3 6 1004.5 1004.5 0.0
25/07:00pm 8.4 7.2 4.6 77 1.7 CALM 0 0 0 0 1005.0 1005.0 0.0
25/06:30pm 7.7 6.6 5.0 83 1.2 CALM 0 0 0 0 1005.2 1005.2 0.0
25/06:00pm 7.4 6.2 4.7 83 1.2 CALM 0 0 0 0 1005.4 1005.4 0.0
25/05:30pm 7.3 5.4 5.0 85 1.0 SE 4 7 2 4 1005.5 1005.5 0.0
25/05:00pm 8.6 7.4 4.8 77 1.7 CALM 0 0 0 0 1005.5 1005.5 0.0
25/04:30pm 9.3 6.3 4.1 70 2.3 NW 9 13 5 7 1005.8 1005.8 0.0
25/04:00pm 9.4 6.1 4.7 72 2.1 NW 11 13 6 7 1006.0 1006.0 0.0
25/03:30pm 9.7 6.7 4.3 69 2.4 NW 9 13 5 7 1006.5 1006.5 0.0
25/03:00pm 9.8 7.2 4.4 69 2.4 NNW 7 9 4 5 1006.7 1006.7 0.0
25/02:30pm 9.8 6.3 3.6 65 2.7 NW 11 13 6 7 1007.1 1007.1 0.0
25/02:00pm 9.6 6.8 3.4 65 2.7 NNE 7 9 4 5 1007.3 1007.3 0.0
25/01:30pm 9.8 5.1 3.4 64 2.8 NW 17 20 9 11 1007.8 1007.8 0.0
25/01:00pm 9.4 6.6 3.1 65 2.7 NNE 7 9 4 5 1008.2 1008.2 0.0
25/12:30pm 9.6 6.4 2.8 62 2.9 NE 9 11 5 6 1008.7 1008.7 0.0
25/12:00pm 8.9 5.2 2.2 63 2.8 NW 11 15 6 8 1009.3 1009.3 0.0
25/11:30am 8.0 3.5 2.0 66 2.5 NNW 15 22 8 12 1010.4 1010.4 0.0
25/11:00am 7.5 3.4 2.5 70 2.1 NW 13 15 7 8 1011.0 1011.0 0.0
25/10:30am 7.3 2.7 1.7 67 2.3 WNW 15 19 8 10 1011.8 1011.8 0.0
25/10:00am 6.6 1.7 1.7 71 2.0 NNW 17 20 9 11 1012.3 1012.3 0.0
25/09:30am 5.4 1.6 1.6 76 1.5 NNW 11 17 6 9 1012.6 1012.6 0.0
25/09:00am 5.3 0.3 1.2 75 1.6 NW 17 22 9 12 1012.8 1012.8 0.0
25/08:30am 4.5 -1.0 0.9 77 1.4 NW 19 26 10 14 1013.1 1013.1 0.0
25/08:00am 3.7 -1.8 0.8 81 1.1 NW 19 26 10 14 1012.8 1012.8 0.0
25/07:30am 3.2 -2.3 0.8 84 0.9 NW 19 24 10 13 1012.5 1012.5 0.0
25/07:00am 3.1 -0.2 0.4 82 1.0 NNW 7 15 4 8 1012.3 1012.3 0.0
25/06:30am 3.3 -2.3 0.9 84 0.9 NW 20 26 11 14 1013.3 1013.3 0.0
25/06:00am 3.3 -1.4 0.9 84 0.9 WNW 15 20 8 11 1013.3 1013.3 0.0
25/05:30am 3.2 -1.9 0.8 84 0.9 WNW 17 20 9 11 1013.8 1013.8 0.0
25/05:00am 3.3 -1.9 0.4 81 1.1 WNW 17 26 9 14 1014.0 1014.0 0.0
25/04:30am 3.4 -1.7 0.8 83 1.0 WNW 17 19 9 10 1013.6 1013.6 0.0
25/04:00am 3.5 -2.5 0.9 83 1.0 NW 22 26 12 14 1013.7 1013.7 0.0
25/03:30am 3.2 -1.9 0.8 84 0.9 WNW 17 24 9 13 1013.4 1013.4 0.0
25/03:00am 3.8 -1.3 0.9 81 1.1 NW 17 19 9 10 1013.6 1013.6 0.0
25/02:30am 3.9 -0.4 0.8 80 1.2 WNW 13 17 7 9 1014.0 1014.0 0.0
25/02:00am 3.8 -0.5 0.7 80 1.2 WNW 13 15 7 8 1014.3 1014.3 0.0
25/01:30am 4.3 0.0 0.9 78 1.3 WNW 13 15 7 8 1014.6 1014.6 0.0
25/01:00am 5.3 0.2 1.0 74 1.7 NW 17 20 9 11 1015.0 1015.0 0.0
25/12:30am 5.7 1.2 0.0 67 2.2 WNW 13 17 7 9 1015.1 1015.1 0.0
25/12:00am 6.2 0.8 -1.0 60 2.7 W 17 20 9 11 1015.3 1015.3 0.0
 
Date/Time
EST
Tmp

°C
App
Tmp
°C
Dew
Point
°C
Rel
Hum
%
Delta-T

°C
Wind Press
QNH
hPa
Press
MSL
hPa
Rain
since
9 am
mm
Dir
 
Spd
km/h
Gust
km/h
Spd
kts
Gust
kts
24/11:30pm 6.7 2.1 -1.0 58 2.9 WNW 13 17 7 9 1015.6 1015.6 0.0
24/11:00pm 6.7 2.2 -0.6 59 2.8 WNW 13 15 7 8 1015.7 1015.7 0.0
24/10:30pm 7.0 2.6 0.1 61 2.7 WNW 13 17 7 9 1016.0 1016.0 0.0

Latest Capital City Observations: Canberra | Sydney | Melbourne | Brisbane | Adelaide | Perth | Hobart | Darwin

Other Formats:

Comma delimited format used in spreadsheet applications
http://www.bom.gov.au/fwo/IDT60901/IDT60901.94975.axf

JavaScript Object Notation format (JSON) in row-major order
http://www.bom.gov.au/fwo/IDT60901/IDT60901.94975.json